sensor_id;sensor_type;location;lat;lon;timestamp;pressure;altitude;pressure_sealevel;temperature;humidity
11448;BME280;43755;49.736;8.734;2023-05-03T00:00:18;98823.41;;;5.45;100.00
11448;BME280;43755;49.736;8.734;2023-05-03T00:02:20;98825.22;;;5.37;100.00
11448;BME280;43755;49.736;8.734;2023-05-03T00:04:21;98829.63;;;5.35;100.00
11448;BME280;43755;49.736;8.734;2023-05-03T00:06:23;98826.19;;;5.27;100.00
11448;BME280;43755;49.736;8.734;2023-05-03T00:08:24;98834.00;;;5.33;100.00
11448;BME280;43755;49.736;8.734;2023-05-03T00:10:26;98829.59;;;5.36;100.00
11448;BME280;43755;49.736;8.734;2023-05-03T00:12:27;98827.06;;;5.29;100.00
11448;BME280;43755;49.736;8.734;2023-05-03T00:14:28;98824.44;;;5.26;100.00
11448;BME280;43755;49.736;8.734;2023-05-03T00:16:31;98827.94;;;5.28;100.00
11448;BME280;43755;49.736;8.734;2023-05-03T00:18:33;98819.19;;;5.27;100.00
11448;BME280;43755;49.736;8.734;2023-05-03T00:20:34;98821.75;;;5.30;100.00
11448;BME280;43755;49.736;8.734;2023-05-03T00:22:36;98809.56;;;5.28;100.00
11448;BME280;43755;49.736;8.734;2023-05-03T00:24:38;98807.81;;;5.25;100.00
11448;BME280;43755;49.736;8.734;2023-05-03T00:26:39;98812.19;;;5.25;100.00
11448;BME280;43755;49.736;8.734;2023-05-03T00:28:40;98812.16;;;5.31;100.00
11448;BME280;43755;49.736;8.734;2023-05-03T00:30:42;98808.75;;;5.23;100.00
11448;BME280;43755;49.736;8.734;2023-05-03T00:32:45;98807.00;;;5.22;100.00
11448;BME280;43755;49.736;8.734;2023-05-03T00:34:46;98807.91;;;5.18;100.00
11448;BME280;43755;49.736;8.734;2023-05-03T00:36:47;98811.47;;;5.11;100.00
11448;BME280;43755;49.736;8.734;2023-05-03T00:38:49;98803.59;;;5.09;100.00
11448;BME280;43755;49.736;8.734;2023-05-03T00:40:52;98814.13;;;5.06;100.00
11448;BME280;43755;49.736;8.734;2023-05-03T00:42:54;98805.34;;;5.07;100.00
11448;BME280;43755;49.736;8.734;2023-05-03T00:44:55;98802.81;;;5.00;100.00
11448;BME280;43755;49.736;8.734;2023-05-03T00:46:57;98801.94;;;4.99;100.00
11448;BME280;43755;49.736;8.734;2023-05-03T00:49:00;98800.19;;;4.95;100.00
11448;BME280;43755;49.736;8.734;2023-05-03T00:51:02;98793.28;;;4.85;100.00
11448;BME280;43755;49.736;8.734;2023-05-03T00:53:06;98795.09;;;4.80;100.00
11448;BME280;43755;49.736;8.734;2023-05-03T00:55:08;98789.84;;;4.80;100.00
11448;BME280;43755;49.736;8.734;2023-05-03T00:57:10;98789.00;;;4.75;100.00
11448;BME280;43755;49.736;8.734;2023-05-03T00:59:12;98779.41;;;4.77;100.00
11448;BME280;43755;49.736;8.734;2023-05-03T01:01:14;98785.44;;;4.83;100.00
11448;BME280;43755;49.736;8.734;2023-05-03T01:03:15;98781.09;;;4.78;100.00
11448;BME280;43755;49.736;8.734;2023-05-03T01:05:18;98773.31;;;4.70;100.00
11448;BME280;43755;49.736;8.734;2023-05-03T01:07:27;98775.94;;;4.67;100.00
11448;BME280;43755;49.736;8.734;2023-05-03T01:09:33;98777.69;;;4.68;100.00
11448;BME280;43755;49.736;8.734;2023-05-03T01:11:41;98777.69;;;4.67;100.00
11448;BME280;43755;49.736;8.734;2023-05-03T01:13:54;98769.91;;;4.54;100.00
11448;BME280;43755;49.736;8.734;2023-05-03T01:15:59;98770.75;;;4.61;100.00
11448;BME280;43755;49.736;8.734;2023-05-03T01:18:06;98767.22;;;4.70;100.00
11448;BME280;43755;49.736;8.734;2023-05-03T01:20:12;98765.38;;;4.82;100.00
11448;BME280;43755;49.736;8.734;2023-05-03T01:22:17;98759.34;;;4.68;100.00
11448;BME280;43755;49.736;8.734;2023-05-03T01:24:21;98765.50;;;4.64;100.00
11448;BME280;43755;49.736;8.734;2023-05-03T01:26:26;98763.81;;;4.56;100.00
11448;BME280;43755;49.736;8.734;2023-05-03T01:28:28;98761.19;;;4.59;100.00
11448;BME280;43755;49.736;8.734;2023-05-03T01:30:30;98762.06;;;4.58;100.00
11448;BME280;43755;49.736;8.734;2023-05-03T01:32:41;98753.31;;;4.59;100.00
11448;BME280;43755;49.736;8.734;2023-05-03T01:34:50;98761.19;;;4.54;100.00
11448;BME280;43755;49.736;8.734;2023-05-03T01:36:57;98757.72;;;4.52;100.00
11448;BME280;43755;49.736;8.734;2023-05-03T01:39:07;98762.97;;;4.50;100.00
11448;BME280;43755;49.736;8.734;2023-05-03T01:41:10;98758.63;;;4.46;100.00
11448;BME280;43755;49.736;8.734;2023-05-03T01:43:16;98759.50;;;4.44;100.00
11448;BME280;43755;49.736;8.734;2023-05-03T01:45:18;98755.16;;;4.44;100.00
11448;BME280;43755;49.736;8.734;2023-05-03T01:47:20;98746.41;;;4.42;100.00
11448;BME280;43755;49.736;8.734;2023-05-03T01:49:22;98748.19;;;4.40;100.00
11448;BME280;43755;49.736;8.734;2023-05-03T01:51:23;98752.59;;;4.35;100.00
11448;BME280;43755;49.736;8.734;2023-05-03T01:53:25;98743.03;;;4.28;100.00
11448;BME280;43755;49.736;8.734;2023-05-03T01:55:26;98743.03;;;4.30;100.00
11448;BME280;43755;49.736;8.734;2023-05-03T01:57:27;98752.66;;;4.23;100.00
11448;BME280;43755;49.736;8.734;2023-05-03T01:59:30;98752.63;;;4.25;100.00
11448;BME280;43755;49.736;8.734;2023-05-03T02:01:32;98756.16;;;4.24;100.00
11448;BME280;43755;49.736;8.734;2023-05-03T02:03:33;98757.91;;;4.20;100.00
11448;BME280;43755;49.736;8.734;2023-05-03T02:05:34;98759.69;;;4.17;100.00
11448;BME280;43755;49.736;8.734;2023-05-03T02:07:37;98766.66;;;4.18;100.00
11448;BME280;43755;49.736;8.734;2023-05-03T02:09:38;98757.97;;;4.11;100.00
11448;BME280;43755;49.736;8.734;2023-05-03T02:11:40;98759.72;;;4.07;100.00
11448;BME280;43755;49.736;8.734;2023-05-03T02:13:43;98758.88;;;4.05;100.00
11448;BME280;43755;49.736;8.734;2023-05-03T02:15:45;98764.09;;;4.04;100.00
11448;BME280;43755;49.736;8.734;2023-05-03T02:17:47;98767.63;;;4.00;100.00
11448;BME280;43755;49.736;8.734;2023-05-03T02:19:49;98762.38;;;3.97;100.00
11448;BME280;43755;49.736;8.734;2023-05-03T02:21:51;98762.41;;;3.89;100.00
11448;BME280;43755;49.736;8.734;2023-05-03T02:23:52;98768.53;;;3.93;100.00
11448;BME280;43755;49.736;8.734;2023-05-03T02:25:54;98771.16;;;3.85;100.00
11448;BME280;43755;49.736;8.734;2023-05-03T02:27:55;98768.53;;;3.84;100.00
11448;BME280;43755;49.736;8.734;2023-05-03T02:29:57;98765.94;;;3.81;100.00
11448;BME280;43755;49.736;8.734;2023-05-03T02:31:59;98765.91;;;3.93;100.00
11448;BME280;43755;49.736;8.734;2023-05-03T02:34:01;98765.91;;;3.93;100.00
11448;BME280;43755;49.736;8.734;2023-05-03T02:36:03;98769.41;;;3.87;100.00
11448;BME280;43755;49.736;8.734;2023-05-03T02:38:04;98771.19;;;3.81;100.00
11448;BME280;43755;49.736;8.734;2023-05-03T02:40:07;98774.66;;;3.84;100.00
11448;BME280;43755;49.736;8.734;2023-05-03T02:42:08;98772.09;;;3.77;100.00
11448;BME280;43755;49.736;8.734;2023-05-03T02:44:10;98768.56;;;3.81;100.00
11448;BME280;43755;49.736;8.734;2023-05-03T02:46:11;98773.78;;;3.84;100.00
11448;BME280;43755;49.736;8.734;2023-05-03T02:48:14;98773.81;;;3.81;100.00
11448;BME280;43755;49.736;8.734;2023-05-03T02:50:16;98773.84;;;3.76;100.00
11448;BME280;43755;49.736;8.734;2023-05-03T02:52:17;98774.72;;;3.60;100.00
11448;BME280;43755;49.736;8.734;2023-05-03T02:54:19;98776.47;;;3.59;100.00
11448;BME280;43755;49.736;8.734;2023-05-03T02:56:20;98776.47;;;3.59;100.00
11448;BME280;43755;49.736;8.734;2023-05-03T02:58:22;98768.59;;;3.65;100.00
11448;BME280;43755;49.736;8.734;2023-05-03T03:00:23;98772.13;;;3.64;100.00
11448;BME280;43755;49.736;8.734;2023-05-03T03:02:25;98781.72;;;3.56;100.00
11448;BME280;43755;49.736;8.734;2023-05-03T03:04:27;98764.28;;;3.61;100.00
11448;BME280;43755;49.736;8.734;2023-05-03T03:06:29;98772.13;;;3.55;100.00
11448;BME280;43755;49.736;8.734;2023-05-03T03:08:30;98770.41;;;3.48;100.00
11448;BME280;43755;49.736;8.734;2023-05-03T03:10:32;98764.34;;;3.40;100.00
11448;BME280;43755;49.736;8.734;2023-05-03T03:12:34;98771.31;;;3.32;100.00
11448;BME280;43755;49.736;8.734;2023-05-03T03:14:36;98771.31;;;3.40;100.00
11448;BME280;43755;49.736;8.734;2023-05-03T03:16:37;98772.19;;;3.40;100.00
11448;BME280;43755;49.736;8.734;2023-05-03T03:18:38;98766.97;;;3.36;100.00
11448;BME280;43755;49.736;8.734;2023-05-03T03:20:41;98770.47;;;3.21;100.00
11448;BME280;43755;49.736;8.734;2023-05-03T03:22:43;98768.75;;;3.11;100.00
11448;BME280;43755;49.736;8.734;2023-05-03T03:24:44;98766.13;;;3.11;100.00
11448;BME280;43755;49.736;8.734;2023-05-03T03:26:46;98770.47;;;3.16;100.00
11448;BME280;43755;49.736;8.734;2023-05-03T03:28:47;98772.22;;;3.22;100.00
11448;BME280;43755;49.736;8.734;2023-05-03T03:30:48;98771.34;;;3.23;100.00
11448;BME280;43755;49.736;8.734;2023-05-03T03:32:50;98771.31;;;3.24;100.00
11448;BME280;43755;49.736;8.734;2023-05-03T03:34:52;98765.25;;;3.16;100.00
11448;BME280;43755;49.736;8.734;2023-05-03T03:36:55;98769.59;;;3.08;100.00
11448;BME280;43755;49.736;8.734;2023-05-03T03:38:56;98763.53;;;3.06;100.00
11448;BME280;43755;49.736;8.734;2023-05-03T03:40:58;98765.25;;;3.04;100.00
11448;BME280;43755;49.736;8.734;2023-05-03T03:42:59;98771.34;;;3.11;100.00
11448;BME280;43755;49.736;8.734;2023-05-03T03:45:00;98772.22;;;3.10;100.00
11448;BME280;43755;49.736;8.734;2023-05-03T03:47:02;98771.38;;;2.99;100.00
11448;BME280;43755;49.736;8.734;2023-05-03T03:49:03;98770.50;;;3.00;100.00
11448;BME280;43755;49.736;8.734;2023-05-03T03:51:05;98775.72;;;2.97;100.00
11448;BME280;43755;49.736;8.734;2023-05-03T03:53:07;98775.69;;;3.01;100.00
11448;BME280;43755;49.736;8.734;2023-05-03T03:55:10;98768.75;;;3.03;100.00
11448;BME280;43755;49.736;8.734;2023-05-03T03:57:11;98762.66;;;3.04;100.00
11448;BME280;43755;49.736;8.734;2023-05-03T03:59:13;98770.47;;;3.07;100.00
11448;BME280;43755;49.736;8.734;2023-05-03T04:01:14;98757.41;;;3.07;100.00
11448;BME280;43755;49.736;8.734;2023-05-03T04:03:16;98762.66;;;3.00;100.00
11448;BME280;43755;49.736;8.734;2023-05-03T04:05:17;98759.16;;;2.96;100.00
11448;BME280;43755;49.736;8.734;2023-05-03T04:07:18;98761.78;;;2.93;100.00
11448;BME280;43755;49.736;8.734;2023-05-03T04:09:22;98760.91;;;2.96;100.00
11448;BME280;43755;49.736;8.734;2023-05-03T04:11:23;98761.78;;;2.92;100.00
11448;BME280;43755;49.736;8.734;2023-05-03T04:13:25;98761.78;;;2.93;100.00
11448;BME280;43755;49.736;8.734;2023-05-03T04:15:26;98764.38;;;3.01;100.00
11448;BME280;43755;49.736;8.734;2023-05-03T04:17:27;98764.38;;;3.01;100.00
11448;BME280;43755;49.736;8.734;2023-05-03T04:19:29;98773.09;;;3.06;100.00
11448;BME280;43755;49.736;8.734;2023-05-03T04:21:31;98770.47;;;3.03;100.00
11448;BME280;43755;49.736;8.734;2023-05-03T04:23:32;98775.72;;;3.03;100.00
11448;BME280;43755;49.736;8.734;2023-05-03T04:25:35;98776.56;;;3.09;100.00
11448;BME280;43755;49.736;8.734;2023-05-03T04:27:37;98776.56;;;3.14;100.00
11448;BME280;43755;49.736;8.734;2023-05-03T04:29:39;98776.59;;;3.17;100.00
11448;BME280;43755;49.736;8.734;2023-05-03T04:31:40;98775.69;;;3.27;100.00
11448;BME280;43755;49.736;8.734;2023-05-03T04:33:42;98773.06;;;3.27;100.00
11448;BME280;43755;49.736;8.734;2023-05-03T04:35:43;98777.44;;;3.28;100.00
11448;BME280;43755;49.736;8.734;2023-05-03T04:37:44;98778.31;;;3.21;100.00
11448;BME280;43755;49.736;8.734;2023-05-03T04:39:46;98780.06;;;3.17;100.00
11448;BME280;43755;49.736;8.734;2023-05-03T04:41:49;98776.56;;;3.20;100.00
11448;BME280;43755;49.736;8.734;2023-05-03T04:43:50;98767.84;;;3.22;100.00
11448;BME280;43755;49.736;8.734;2023-05-03T04:45:52;98780.91;;;3.27;100.00
11448;BME280;43755;49.736;8.734;2023-05-03T04:47:53;98772.19;;;3.34;100.00
11448;BME280;43755;49.736;8.734;2023-05-03T04:49:55;98778.28;;;3.33;100.00
11448;BME280;43755;49.736;8.734;2023-05-03T04:51:56;98775.66;;;3.39;100.00
11448;BME280;43755;49.736;8.734;2023-05-03T04:53:57;98787.00;;;3.38;100.00
11448;BME280;43755;49.736;8.734;2023-05-03T04:55:59;98787.84;;;3.51;100.00
11448;BME280;43755;49.736;8.734;2023-05-03T04:58:02;98783.50;;;3.50;100.00
11448;BME280;43755;49.736;8.734;2023-05-03T05:00:04;98792.16;;;3.59;100.00
11448;BME280;43755;49.736;8.734;2023-05-03T05:02:09;98790.44;;;3.54;100.00
11448;BME280;43755;49.736;8.734;2023-05-03T05:04:11;98790.47;;;3.52;100.00
11448;BME280;43755;49.736;8.734;2023-05-03T05:06:12;98787.78;;;3.66;100.00
11448;BME280;43755;49.736;8.734;2023-05-03T05:08:14;98786.94;;;3.67;100.00
11448;BME280;43755;49.736;8.734;2023-05-03T05:10:15;98797.41;;;3.68;100.00
11448;BME280;43755;49.736;8.734;2023-05-03T05:12:17;98797.34;;;3.79;100.00
11448;BME280;43755;49.736;8.734;2023-05-03T05:14:19;98797.34;;;3.88;100.00
11448;BME280;43755;49.736;8.734;2023-05-03T05:16:21;98801.66;;;3.95;100.00
11448;BME280;43755;49.736;8.734;2023-05-03T05:18:22;98799.97;;;3.88;100.00
11448;BME280;43755;49.736;8.734;2023-05-03T05:20:24;98801.63;;;4.03;100.00
11448;BME280;43755;49.736;8.734;2023-05-03T05:22:25;98797.25;;;4.09;100.00
11448;BME280;43755;49.736;8.734;2023-05-03T05:24:27;98797.25;;;4.11;100.00
11448;BME280;43755;49.736;8.734;2023-05-03T05:26:28;98801.56;;;4.23;100.00
11448;BME280;43755;49.736;8.734;2023-05-03T05:28:30;98802.41;;;4.25;100.00
11448;BME280;43755;49.736;8.734;2023-05-03T05:30:33;98799.78;;;4.29;100.00
11448;BME280;43755;49.736;8.734;2023-05-03T05:32:35;98800.66;;;4.27;100.00
11448;BME280;43755;49.736;8.734;2023-05-03T05:34:36;98805.84;;;4.37;100.00
11448;BME280;43755;49.736;8.734;2023-05-03T05:36:38;98811.06;;;4.37;100.00
11448;BME280;43755;49.736;8.734;2023-05-03T05:38:39;98800.63;;;4.34;100.00
11448;BME280;43755;49.736;8.734;2023-05-03T05:40:40;98806.75;;;4.30;100.00
11448;BME280;43755;49.736;8.734;2023-05-03T05:42:42;98800.66;;;4.30;100.00
11448;BME280;43755;49.736;8.734;2023-05-03T05:44:45;98805.84;;;4.39;100.00
11448;BME280;43755;49.736;8.734;2023-05-03T05:46:48;98808.44;;;4.39;100.00
11448;BME280;43755;49.736;8.734;2023-05-03T05:48:50;98814.50;;;4.48;100.00
11448;BME280;43755;49.736;8.734;2023-05-03T05:50:51;98818.88;;;4.51;100.00
11448;BME280;43755;49.736;8.734;2023-05-03T05:52:53;98818.00;;;4.53;100.00
11448;BME280;43755;49.736;8.734;2023-05-03T05:54:54;98811.78;;;4.67;100.00
11448;BME280;43755;49.736;8.734;2023-05-03T05:56:56;98813.56;;;4.65;100.00
11448;BME280;43755;49.736;8.734;2023-05-03T05:58:57;98814.31;;;4.77;100.00
11448;BME280;43755;49.736;8.734;2023-05-03T06:01:00;98806.44;;;4.79;100.00
11448;BME280;43755;49.736;8.734;2023-05-03T06:03:05;98812.53;;;4.84;100.00
11448;BME280;43755;49.736;8.734;2023-05-03T06:05:07;98799.41;;;4.85;100.00
11448;BME280;43755;49.736;8.734;2023-05-03T06:07:08;98799.38;;;4.94;100.00
11448;BME280;43755;49.736;8.734;2023-05-03T06:09:10;98790.44;;;5.14;100.00
11448;BME280;43755;49.736;8.734;2023-05-03T06:11:11;98791.22;;;5.25;100.00
11448;BME280;43755;49.736;8.734;2023-05-03T06:13:13;98792.03;;;5.33;100.00
11448;BME280;43755;49.736;8.734;2023-05-03T06:15:15;98785.84;;;5.42;100.00
11448;BME280;43755;49.736;8.734;2023-05-03T06:17:16;98784.84;;;5.52;100.00
11448;BME280;43755;49.736;8.734;2023-05-03T06:19:19;98787.34;;;5.61;100.00
11448;BME280;43755;49.736;8.734;2023-05-03T06:21:21;98793.53;;;5.58;100.00
11448;BME280;43755;49.736;8.734;2023-05-03T06:23:22;98786.41;;;5.69;100.00
11448;BME280;43755;49.736;8.734;2023-05-03T06:25:24;98788.88;;;5.83;100.00
11448;BME280;43755;49.736;8.734;2023-05-03T06:27:25;98785.16;;;6.02;100.00
11448;BME280;43755;49.736;8.734;2023-05-03T06:29:27;98789.41;;;6.14;100.00
11448;BME280;43755;49.736;8.734;2023-05-03T06:31:28;98787.56;;;6.21;100.00
11448;BME280;43755;49.736;8.734;2023-05-03T06:33:30;98789.25;;;6.26;100.00
11448;BME280;43755;49.736;8.734;2023-05-03T06:35:32;98786.53;;;6.31;100.00
11448;BME280;43755;49.736;8.734;2023-05-03T06:37:34;98786.63;;;6.25;100.00
11448;BME280;43755;49.736;8.734;2023-05-03T06:39:35;98775.19;;;6.30;100.00
11448;BME280;43755;49.736;8.734;2023-05-03T06:41:37;98770.59;;;6.44;100.00
11448;BME280;43755;49.736;8.734;2023-05-03T06:43:38;98774.69;;;6.65;100.00
11448;BME280;43755;49.736;8.734;2023-05-03T06:45:41;98773.69;;;6.72;100.00
11448;BME280;43755;49.736;8.734;2023-05-03T06:47:42;98773.56;;;6.83;100.00
11448;BME280;43755;49.736;8.734;2023-05-03T06:49:44;98778.72;;;6.87;100.00
11448;BME280;43755;49.736;8.734;2023-05-03T06:51:47;98768.88;;;7.00;100.00
11448;BME280;43755;49.736;8.734;2023-05-03T06:53:48;98784.38;;;7.17;100.00
11448;BME280;43755;49.736;8.734;2023-05-03T06:55:49;98784.13;;;7.30;100.00
11448;BME280;43755;49.736;8.734;2023-05-03T06:57:51;98787.41;;;7.45;100.00
11448;BME280;43755;49.736;8.734;2023-05-03T06:59:52;98786.97;;;7.69;100.00
11448;BME280;43755;49.736;8.734;2023-05-03T07:01:54;98777.97;;;7.79;100.00
11448;BME280;43755;49.736;8.734;2023-05-03T07:03:55;98784.06;;;7.82;100.00
11448;BME280;43755;49.736;8.734;2023-05-03T07:05:58;98790.69;;;8.02;100.00
11448;BME280;43755;49.736;8.734;2023-05-03T07:08:01;98788.56;;;8.19;100.00
11448;BME280;43755;49.736;8.734;2023-05-03T07:10:03;98797.09;;;8.35;100.00
11448;BME280;43755;49.736;8.734;2023-05-03T07:12:04;98796.13;;;8.39;100.00
11448;BME280;43755;49.736;8.734;2023-05-03T07:14:05;98784.47;;;8.49;100.00
11448;BME280;43755;49.736;8.734;2023-05-03T07:16:07;98794.19;;;8.47;100.00
11448;BME280;43755;49.736;8.734;2023-05-03T07:18:08;98781.00;;;8.47;100.00
11448;BME280;43755;49.736;8.734;2023-05-03T07:20:10;98778.31;;;8.48;100.00
11448;BME280;43755;49.736;8.734;2023-05-03T07:22:12;98782.28;;;8.68;100.00
11448;BME280;43755;49.736;8.734;2023-05-03T07:24:16;98782.72;;;8.86;100.00
11448;BME280;43755;49.736;8.734;2023-05-03T07:26:18;98773.75;;;8.95;100.00
11448;BME280;43755;49.736;8.734;2023-05-03T07:28:19;98775.25;;;9.05;100.00
11448;BME280;43755;49.736;8.734;2023-05-03T07:30:21;98782.31;;;9.03;100.00
11448;BME280;43755;49.736;8.734;2023-05-03T07:32:22;98777.44;;;8.86;100.00
11448;BME280;43755;49.736;8.734;2023-05-03T07:34:24;98774.34;;;9.06;100.00
11448;BME280;43755;49.736;8.734;2023-05-03T07:36:25;98775.38;;;9.00;100.00
11448;BME280;43755;49.736;8.734;2023-05-03T07:38:27;98768.16;;;9.07;100.00
11448;BME280;43755;49.736;8.734;2023-05-03T07:40:30;98775.31;;;9.02;100.00
11448;BME280;43755;49.736;8.734;2023-05-03T07:42:32;98775.41;;;8.99;100.00
11448;BME280;43755;49.736;8.734;2023-05-03T07:44:33;98780.19;;;9.19;100.00
11448;BME280;43755;49.736;8.734;2023-05-03T07:46:35;98778.50;;;9.16;100.00
11448;BME280;43755;49.736;8.734;2023-05-03T07:48:36;98776.78;;;9.14;100.00
11448;BME280;43755;49.736;8.734;2023-05-03T07:50:40;98775.38;;;9.34;100.00
11448;BME280;43755;49.736;8.734;2023-05-03T07:52:42;98771.69;;;9.41;100.00
11448;BME280;43755;49.736;8.734;2023-05-03T07:54:43;98775.22;;;9.40;100.00
11448;BME280;43755;49.736;8.734;2023-05-03T07:56:46;98777.22;;;9.31;100.00
11448;BME280;43755;49.736;8.734;2023-05-03T07:58:48;98778.94;;;9.33;100.00
11448;BME280;43755;49.736;8.734;2023-05-03T08:00:49;98770.72;;;9.44;100.00
11448;BME280;43755;49.736;8.734;2023-05-03T08:02:51;98783.81;;;9.49;100.00
11448;BME280;43755;49.736;8.734;2023-05-03T08:04:52;98787.59;;;9.38;100.00
11448;BME280;43755;49.736;8.734;2023-05-03T08:06:54;98782.44;;;9.34;100.00
11448;BME280;43755;49.736;8.734;2023-05-03T08:08:56;98780.22;;;9.17;100.00
11448;BME280;43755;49.736;8.734;2023-05-03T08:10:57;98786.09;;;9.28;100.00
11448;BME280;43755;49.736;8.734;2023-05-03T08:13:00;98779.66;;;9.40;100.00
11448;BME280;43755;49.736;8.734;2023-05-03T08:15:02;98783.47;;;9.61;100.00
11448;BME280;43755;49.736;8.734;2023-05-03T08:17:06;98787.97;;;9.59;100.00
11448;BME280;43755;49.736;8.734;2023-05-03T08:19:08;98778.31;;;9.58;100.00
11448;BME280;43755;49.736;8.734;2023-05-03T08:21:10;98777.72;;;9.47;100.00
11448;BME280;43755;49.736;8.734;2023-05-03T08:23:12;98774.69;;;9.60;100.00
11448;BME280;43755;49.736;8.734;2023-05-03T08:25:14;98774.19;;;9.78;100.00
11448;BME280;43755;49.736;8.734;2023-05-03T08:27:16;98780.72;;;9.98;100.00
11448;BME280;43755;49.736;8.734;2023-05-03T08:29:19;98777.13;;;10.00;100.00
11448;BME280;43755;49.736;8.734;2023-05-03T08:31:21;98769.47;;;9.90;100.00
11448;BME280;43755;49.736;8.734;2023-05-03T08:33:22;98778.75;;;10.06;100.00
11448;BME280;43755;49.736;8.734;2023-05-03T08:35:24;98772.41;;;10.11;100.00
11448;BME280;43755;49.736;8.734;2023-05-03T08:37:27;98773.53;;;10.34;100.00
11448;BME280;43755;49.736;8.734;2023-05-03T08:39:28;98790.47;;;10.28;100.00
11448;BME280;43755;49.736;8.734;2023-05-03T08:41:31;98769.94;;;10.36;100.00
11448;BME280;43755;49.736;8.734;2023-05-03T08:43:37;98776.41;;;10.55;100.00
11448;BME280;43755;49.736;8.734;2023-05-03T08:45:44;98773.97;;;10.77;100.00
11448;BME280;43755;49.736;8.734;2023-05-03T08:47:52;98775.03;;;10.72;100.00
11448;BME280;43755;49.736;8.734;2023-05-03T08:49:55;98787.13;;;10.51;100.00
11448;BME280;43755;49.736;8.734;2023-05-03T08:51:58;98775.66;;;10.52;100.00
11448;BME280;43755;49.736;8.734;2023-05-03T08:54:00;98776.91;;;10.68;100.00
11448;BME280;43755;49.736;8.734;2023-05-03T08:56:05;98771.66;;;10.66;100.00
11448;BME280;43755;49.736;8.734;2023-05-03T08:58:07;98766.44;;;10.91;100.00
11448;BME280;43755;49.736;8.734;2023-05-03T09:00:12;98777.13;;;11.16;100.00
11448;BME280;43755;49.736;8.734;2023-05-03T09:02:16;98779.47;;;11.25;100.00
11448;BME280;43755;49.736;8.734;2023-05-03T09:04:17;98778.50;;;11.28;96.95
11448;BME280;43755;49.736;8.734;2023-05-03T09:06:21;98774.50;;;11.42;100.00
11448;BME280;43755;49.736;8.734;2023-05-03T09:08:25;98776.06;;;11.48;100.00
11448;BME280;43755;49.736;8.734;2023-05-03T09:10:27;98779.78;;;11.42;97.72
11448;BME280;43755;49.736;8.734;2023-05-03T09:12:37;98772.53;;;11.47;100.00
11448;BME280;43755;49.736;8.734;2023-05-03T09:14:41;98785.28;;;11.61;98.69
11448;BME280;43755;49.736;8.734;2023-05-03T09:16:44;98777.69;;;11.52;95.92
11448;BME280;43755;49.736;8.734;2023-05-03T09:18:56;98787.56;;;11.47;96.31
11448;BME280;43755;49.736;8.734;2023-05-03T09:20:58;98773.25;;;11.53;96.61
11448;BME280;43755;49.736;8.734;2023-05-03T09:22:59;98777.75;;;11.49;98.54
11448;BME280;43755;49.736;8.734;2023-05-03T09:25:01;98792.00;;;11.46;92.47
11448;BME280;43755;49.736;8.734;2023-05-03T09:27:16;98780.50;;;11.47;93.37
11448;BME280;43755;49.736;8.734;2023-05-03T09:29:29;98778.56;;;11.53;93.86
11448;BME280;43755;49.736;8.734;2023-05-03T09:31:32;98780.59;;;11.69;94.33
11448;BME280;43755;49.736;8.734;2023-05-03T09:33:33;98771.88;;;11.92;100.00
11448;BME280;43755;49.736;8.734;2023-05-03T09:35:36;98772.91;;;11.88;91.27
11448;BME280;43755;49.736;8.734;2023-05-03T09:37:38;98779.81;;;11.92;99.04
11448;BME280;43755;49.736;8.734;2023-05-03T09:39:40;98771.41;;;11.81;94.70
11448;BME280;43755;49.736;8.734;2023-05-03T09:41:41;98773.22;;;11.79;96.89
11448;BME280;43755;49.736;8.734;2023-05-03T09:43:50;98775.88;;;11.79;91.52
11448;BME280;43755;49.736;8.734;2023-05-03T09:46:07;98773.47;;;11.71;91.54
11448;BME280;43755;49.736;8.734;2023-05-03T09:48:08;98762.56;;;11.80;92.00
11448;BME280;43755;49.736;8.734;2023-05-03T09:50:10;98762.13;;;11.93;92.79
11448;BME280;43755;49.736;8.734;2023-05-03T09:52:13;98761.50;;;12.09;92.16
11448;BME280;43755;49.736;8.734;2023-05-03T09:54:14;98764.16;;;12.09;89.66
11448;BME280;43755;49.736;8.734;2023-05-03T09:56:16;98760.16;;;12.22;93.35
11448;BME280;43755;49.736;8.734;2023-05-03T09:58:20;98748.91;;;12.39;90.77
11448;BME280;43755;49.736;8.734;2023-05-03T10:00:23;98756.97;;;12.59;96.60
11448;BME280;43755;49.736;8.734;2023-05-03T10:02:25;98758.94;;;12.54;86.46
11448;BME280;43755;49.736;8.734;2023-05-03T10:04:28;98765.91;;;12.34;85.63
11448;BME280;43755;49.736;8.734;2023-05-03T10:06:35;98754.78;;;12.47;89.64
11448;BME280;43755;49.736;8.734;2023-05-03T10:08:40;98749.97;;;12.57;85.71
11448;BME280;43755;49.736;8.734;2023-05-03T10:10:43;98762.72;;;12.70;86.57
11448;BME280;43755;49.736;8.734;2023-05-03T10:12:46;98754.13;;;12.64;84.14
11448;BME280;43755;49.736;8.734;2023-05-03T10:14:51;98759.38;;;12.65;79.74
11448;BME280;43755;49.736;8.734;2023-05-03T10:16:58;98745.97;;;12.68;83.49
11448;BME280;43755;49.736;8.734;2023-05-03T10:19:07;98746.34;;;12.81;85.57
11448;BME280;43755;49.736;8.734;2023-05-03T10:21:15;98741.22;;;12.98;84.08
11448;BME280;43755;49.736;8.734;2023-05-03T10:23:20;98737.34;;;13.07;82.61
11448;BME280;43755;49.736;8.734;2023-05-03T10:25:23;98747.41;;;13.42;80.65
11448;BME280;43755;49.736;8.734;2023-05-03T10:27:36;98734.88;;;13.85;81.59
11448;BME280;43755;49.736;8.734;2023-05-03T10:29:49;98729.00;;;14.17;72.39
11448;BME280;43755;49.736;8.734;2023-05-03T10:31:51;98742.78;;;14.46;75.22
11448;BME280;43755;49.736;8.734;2023-05-03T10:33:52;98729.75;;;14.40;72.89
11448;BME280;43755;49.736;8.734;2023-05-03T10:35:53;98738.03;;;14.71;77.41
11448;BME280;43755;49.736;8.734;2023-05-03T10:37:55;98732.47;;;14.38;79.13
11448;BME280;43755;49.736;8.734;2023-05-03T10:40:04;98726.41;;;14.16;70.98
11448;BME280;43755;49.736;8.734;2023-05-03T10:42:08;98717.72;;;14.12;70.89
11448;BME280;43755;49.736;8.734;2023-05-03T10:44:24;98715.94;;;14.69;76.14
11448;BME280;43755;49.736;8.734;2023-05-03T10:46:31;98714.50;;;14.98;68.28
11448;BME280;43755;49.736;8.734;2023-05-03T10:48:34;98722.91;;;14.90;76.60